Terminal Aerodrome Forecast
Issued by NWS Detroit/Pontiac, MI

Home | Current Version | Previous Version | Text Only | Print | Product List | Glossary On
Versions: 1 2 3 4 5 6 7 8 9 10 11 12 13 14 15 16 17 18 19
000
FTUS43 KDTX 042333
TAFFNT
TAF
KFNT 042333Z 0500/0524 29013G20KT P6SM SCT035 BKN100
     FM050100 29007KT P6SM SCT050 BKN120
      TEMPO 0502/0506 BKN050
     FM050600 32005KT P6SM SCT035 BKN200
     FM051600 30008KT P6SM SCT030 BKN200=

USA.gov is the U.S. government's official web portal to all federal, state and local government web resources and services.